createdAt,value
2023-05-22T00:00:20.023Z,15.50
2023-05-22T00:02:47.037Z,15.40
2023-05-22T00:05:15.069Z,15.40
2023-05-22T00:07:43.158Z,15.20
2023-05-22T00:10:10.663Z,15.20
2023-05-22T00:12:37.436Z,15.00
2023-05-22T00:15:04.754Z,15.00
2023-05-22T00:17:31.665Z,15.00
2023-05-22T00:20:07.076Z,15.10
2023-05-22T00:22:37.300Z,15.10
2023-05-22T00:25:04.990Z,15.10
2023-05-22T00:27:32.176Z,15.10
2023-05-22T00:29:59.514Z,15.10
2023-05-22T00:32:27.120Z,15.10
2023-05-22T00:34:53.938Z,15.10
2023-05-22T00:37:20.774Z,15.10
2023-05-22T00:39:47.700Z,15.00
2023-05-22T00:42:14.534Z,15.00
2023-05-22T00:44:41.977Z,14.90
2023-05-22T00:47:09.000Z,14.90
2023-05-22T00:49:38.673Z,14.90
2023-05-22T00:52:05.848Z,14.90
2023-05-22T00:54:33.110Z,14.80
2023-05-22T00:57:01.462Z,14.90
2023-05-22T00:59:29.790Z,14.80
2023-05-22T01:01:57.285Z,14.80
2023-05-22T01:04:25.459Z,14.80
2023-05-22T01:06:53.766Z,14.80
2023-05-22T01:09:20.647Z,14.80
2023-05-22T01:12:00.455Z,14.80
2023-05-22T01:14:53.769Z,14.80
2023-05-22T01:20:21.364Z,14.80
2023-05-22T01:23:00.202Z,14.80
2023-05-22T01:25:49.292Z,14.80
2023-05-22T01:28:26.132Z,14.70
2023-05-22T01:30:55.915Z,14.60
2023-05-22T01:33:26.087Z,14.60
2023-05-22T01:35:57.355Z,14.50
2023-05-22T01:38:25.428Z,14.50
2023-05-22T01:40:53.777Z,14.50
2023-05-22T01:43:20.862Z,14.50
2023-05-22T01:45:47.722Z,14.40
2023-05-22T01:48:14.516Z,14.30
2023-05-22T01:50:41.775Z,14.30
2023-05-22T01:53:42.246Z,14.30
2023-05-22T01:56:18.128Z,14.30
2023-05-22T01:59:19.714Z,14.20
2023-05-22T02:01:50.438Z,14.20
2023-05-22T02:04:20.680Z,14.20
2023-05-22T02:06:48.573Z,14.20
2023-05-22T02:09:17.316Z,14.10
2023-05-22T02:11:46.872Z,14.10
2023-05-22T02:14:13.809Z,14.10
2023-05-22T02:16:42.314Z,14.00
2023-05-22T02:19:09.128Z,14.00
2023-05-22T02:21:36.485Z,14.10
2023-05-22T02:24:03.504Z,14.00
2023-05-22T02:26:30.356Z,14.00
2023-05-22T02:28:58.526Z,13.90
2023-05-22T02:31:26.260Z,13.90
2023-05-22T02:33:53.102Z,13.80
2023-05-22T02:36:20.669Z,13.80
2023-05-22T02:38:49.727Z,13.70
2023-05-22T02:41:16.855Z,13.70
2023-05-22T02:43:44.066Z,13.70
2023-05-22T02:46:12.334Z,13.70
2023-05-22T02:48:39.117Z,13.80
2023-05-22T02:51:05.989Z,13.80
2023-05-22T02:53:36.286Z,13.80
2023-05-22T02:56:03.084Z,13.80
2023-05-22T02:58:30.272Z,13.80
2023-05-22T03:00:57.075Z,13.70
2023-05-22T03:03:24.985Z,13.70
2023-05-22T03:05:58.236Z,13.70
2023-05-22T03:08:28.154Z,13.70
2023-05-22T03:10:56.364Z,13.70
2023-05-22T03:13:23.233Z,13.60
2023-05-22T03:15:50.072Z,13.60
2023-05-22T03:18:17.461Z,13.60
2023-05-22T03:20:45.427Z,13.60
2023-05-22T03:23:13.355Z,13.60
2023-05-22T03:25:40.081Z,13.60
2023-05-22T03:28:07.548Z,13.60
2023-05-22T03:30:38.134Z,13.60
2023-05-22T03:33:11.706Z,13.60
2023-05-22T03:35:39.358Z,13.60
2023-05-22T03:38:06.197Z,13.60
2023-05-22T03:40:33.697Z,13.50
2023-05-22T03:43:00.493Z,13.50
2023-05-22T03:45:27.494Z,13.50
2023-05-22T03:47:54.470Z,13.50
2023-05-22T03:50:21.428Z,13.50
2023-05-22T03:52:48.227Z,13.50
2023-05-22T03:55:16.285Z,13.60
2023-05-22T03:57:43.059Z,13.70
2023-05-22T04:00:11.905Z,13.80
2023-05-22T04:02:45.011Z,13.80
2023-05-22T04:05:12.250Z,13.80
2023-05-22T04:07:42.135Z,13.80
2023-05-22T04:10:09.297Z,13.90
2023-05-22T04:12:36.160Z,14.00
2023-05-22T04:15:03.034Z,14.10
2023-05-22T04:17:33.793Z,14.10
2023-05-22T04:20:00.988Z,14.10
2023-05-22T04:22:27.951Z,14.20
2023-05-22T04:24:54.881Z,14.30
2023-05-22T04:27:22.747Z,14.40
2023-05-22T04:29:52.389Z,14.40
2023-05-22T04:32:21.660Z,14.50
2023-05-22T04:34:52.753Z,14.60
2023-05-22T04:37:20.350Z,14.70
2023-05-22T04:39:47.857Z,14.80
2023-05-22T04:42:17.257Z,14.90
2023-05-22T04:44:43.984Z,14.90
2023-05-22T04:47:12.081Z,15.00
2023-05-22T04:49:39.188Z,15.00
2023-05-22T04:52:07.163Z,15.00
2023-05-22T04:54:34.505Z,15.10
2023-05-22T04:57:03.107Z,15.20
2023-05-22T04:59:31.903Z,15.30
2023-05-22T05:01:58.729Z,15.40
2023-05-22T05:04:25.900Z,15.50
2023-05-22T05:06:53.588Z,15.60
2023-05-22T05:09:21.793Z,15.70
2023-05-22T05:12:23.794Z,15.80
2023-05-22T05:14:51.183Z,16.00
2023-05-22T05:17:18.037Z,16.10
2023-05-22T05:19:44.826Z,16.20
2023-05-22T05:22:16.178Z,16.30
2023-05-22T05:24:43.015Z,16.30
2023-05-22T05:27:12.950Z,16.40
2023-05-22T05:29:39.986Z,16.50
2023-05-22T05:32:22.730Z,16.70
2023-05-22T05:35:08.950Z,17.00
2023-05-22T05:37:48.544Z,17.20
2023-05-22T05:40:16.169Z,17.50
2023-05-22T05:42:47.868Z,17.70
2023-05-22T05:45:16.661Z,17.80
2023-05-22T05:47:43.697Z,17.80
2023-05-22T05:50:11.136Z,17.90
2023-05-22T05:52:39.084Z,18.00
2023-05-22T05:55:11.528Z,18.20
2023-05-22T05:57:38.720Z,18.40
2023-05-22T06:00:11.408Z,18.50
2023-05-22T06:02:43.803Z,18.70
2023-05-22T06:05:30.372Z,18.80
2023-05-22T06:08:10.472Z,18.90
2023-05-22T06:10:37.428Z,19.00
2023-05-22T06:13:13.397Z,18.90
2023-05-22T06:15:41.208Z,18.90
2023-05-22T06:18:08.035Z,18.80
2023-05-22T06:20:36.425Z,18.90
2023-05-22T06:23:03.345Z,19.00
2023-05-22T06:25:30.439Z,19.10
2023-05-22T06:28:00.805Z,19.20
2023-05-22T06:30:39.428Z,19.30
2023-05-22T06:33:10.180Z,19.50
2023-05-22T06:35:37.204Z,19.60
2023-05-22T06:38:06.379Z,19.90
2023-05-22T06:40:34.959Z,20.00
2023-05-22T06:43:12.534Z,20.10
2023-05-22T06:45:50.235Z,20.20
2023-05-22T06:48:22.928Z,20.40
2023-05-22T06:51:06.348Z,20.50
2023-05-22T06:53:33.147Z,20.50
2023-05-22T06:56:00.019Z,20.70
2023-05-22T06:58:37.287Z,20.70
2023-05-22T07:01:05.909Z,20.90
2023-05-22T07:03:38.441Z,21.20
2023-05-22T07:06:33.631Z,21.10
2023-05-22T07:09:05.124Z,21.10
2023-05-22T07:11:32.783Z,21.10
2023-05-22T07:14:00.932Z,21.40
2023-05-22T07:16:29.747Z,21.60
2023-05-22T07:18:56.760Z,22.00
2023-05-22T07:21:28.554Z,22.10
2023-05-22T07:23:55.754Z,21.80
2023-05-22T07:26:23.294Z,22.00
2023-05-22T07:29:01.085Z,22.20
2023-05-22T07:31:28.792Z,22.60
2023-05-22T07:33:55.924Z,22.60
2023-05-22T07:36:23.047Z,22.50
2023-05-22T07:38:49.842Z,22.50
2023-05-22T07:41:17.894Z,22.70
2023-05-22T07:43:44.882Z,22.80
2023-05-22T07:46:18.829Z,23.00
2023-05-22T07:48:59.904Z,23.10
2023-05-22T07:51:26.926Z,23.40
2023-05-22T07:53:53.991Z,23.40
2023-05-22T07:56:20.837Z,23.50
2023-05-22T07:58:49.428Z,23.40
2023-05-22T08:01:19.404Z,23.10
2023-05-22T08:03:49.236Z,22.70
2023-05-22T08:06:19.813Z,22.70
2023-05-22T08:08:46.589Z,23.00
2023-05-22T08:11:13.386Z,23.20
2023-05-22T08:13:40.186Z,23.50
2023-05-22T08:16:07.390Z,23.70
2023-05-22T08:18:36.888Z,23.80
2023-05-22T08:21:03.717Z,24.00
2023-05-22T08:23:30.805Z,23.90
2023-05-22T08:25:58.213Z,24.00
2023-05-22T08:28:25.083Z,24.00
2023-05-22T08:30:52.410Z,23.80
2023-05-22T08:33:19.666Z,23.90
2023-05-22T08:35:46.513Z,24.00
2023-05-22T08:38:18.495Z,24.20
2023-05-22T08:40:51.756Z,24.30
2023-05-22T08:43:20.585Z,24.10
2023-05-22T08:45:55.956Z,24.00
2023-05-22T08:48:23.807Z,24.30
2023-05-22T08:50:57.422Z,24.60
2023-05-22T08:53:25.867Z,24.90
2023-05-22T08:55:53.797Z,25.10
2023-05-22T08:58:21.919Z,25.20
2023-05-22T09:00:49.418Z,25.50
2023-05-22T09:03:16.425Z,25.60
2023-05-22T09:05:45.785Z,25.30
2023-05-22T09:08:20.459Z,25.10
2023-05-22T09:10:47.942Z,25.10
2023-05-22T09:13:26.417Z,25.20
2023-05-22T09:16:00.820Z,25.40
2023-05-22T09:18:33.170Z,25.70
2023-05-22T09:21:02.688Z,26.00
2023-05-22T09:23:30.157Z,25.90
2023-05-22T09:25:58.492Z,25.70
2023-05-22T09:28:25.920Z,25.70
2023-05-22T09:30:54.600Z,25.50
2023-05-22T09:33:23.223Z,25.30
2023-05-22T09:35:54.164Z,25.20
2023-05-22T09:38:28.736Z,25.10
2023-05-22T09:40:56.166Z,24.80
2023-05-22T09:43:25.698Z,24.80
2023-05-22T09:46:02.274Z,25.20
2023-05-22T09:48:29.287Z,25.40
2023-05-22T09:50:59.786Z,25.70
2023-05-22T09:53:31.013Z,25.90
2023-05-22T09:55:59.869Z,26.00
2023-05-22T09:58:29.807Z,26.00
2023-05-22T10:00:57.584Z,25.90
2023-05-22T10:03:26.476Z,25.90
2023-05-22T10:05:56.528Z,26.20
2023-05-22T10:08:28.939Z,26.30
2023-05-22T10:10:59.106Z,26.20
2023-05-22T10:13:27.641Z,26.30
2023-05-22T10:15:54.999Z,26.10
2023-05-22T10:18:22.142Z,25.90
2023-05-22T10:20:50.136Z,26.00
2023-05-22T10:23:17.554Z,26.00
2023-05-22T10:25:47.238Z,25.80
2023-05-22T10:28:24.407Z,25.80
2023-05-22T10:31:00.357Z,25.80
2023-05-22T10:34:02.802Z,25.90
2023-05-22T10:36:32.376Z,26.10
2023-05-22T10:39:24.327Z,26.30
2023-05-22T10:41:51.129Z,26.10
2023-05-22T10:44:18.528Z,26.10
2023-05-22T10:46:52.632Z,25.90
2023-05-22T10:49:23.568Z,25.90
2023-05-22T10:51:56.523Z,26.00
2023-05-22T10:54:42.704Z,25.90
2023-05-22T10:57:18.855Z,25.90
2023-05-22T10:59:51.296Z,25.90
2023-05-22T11:02:45.072Z,25.90
2023-05-22T11:05:25.438Z,26.00
2023-05-22T11:07:52.206Z,26.40
2023-05-22T11:10:56.749Z,26.50
2023-05-22T11:13:29.276Z,26.50
2023-05-22T11:15:57.770Z,26.40
2023-05-22T11:18:28.880Z,26.30
2023-05-22T11:20:56.079Z,26.10
2023-05-22T11:23:25.578Z,25.90
2023-05-22T11:25:52.691Z,25.80
2023-05-22T11:28:19.559Z,25.90
2023-05-22T11:30:46.792Z,25.80
2023-05-22T11:33:16.873Z,26.00
2023-05-22T11:35:47.290Z,26.30
2023-05-22T11:38:15.245Z,26.60
2023-05-22T11:40:42.493Z,26.40
2023-05-22T11:43:09.362Z,26.30
2023-05-22T11:45:40.022Z,26.50
2023-05-22T11:48:08.638Z,26.20
2023-05-22T11:53:07.926Z,26.30
2023-05-22T11:55:35.026Z,26.30
2023-05-22T11:58:02.839Z,26.30
2023-05-22T12:00:31.236Z,26.30
2023-05-22T12:02:58.680Z,26.40
2023-05-22T12:05:26.014Z,26.60
2023-05-22T12:07:53.118Z,26.60
2023-05-22T12:10:20.075Z,26.70
2023-05-22T12:12:48.129Z,26.80
2023-05-22T12:15:20.059Z,27.00
2023-05-22T12:17:47.248Z,27.00
2023-05-22T12:20:14.595Z,26.90
2023-05-22T12:22:43.259Z,27.10
2023-05-22T12:25:16.295Z,27.00
2023-05-22T12:27:46.554Z,27.20
2023-05-22T12:30:14.019Z,27.20
2023-05-22T12:32:40.851Z,27.40
2023-05-22T12:35:15.437Z,27.60
2023-05-22T12:37:51.480Z,27.60
2023-05-22T12:40:19.858Z,27.70
2023-05-22T12:42:48.185Z,27.70
2023-05-22T12:45:14.984Z,27.70
2023-05-22T12:47:41.923Z,27.70
2023-05-22T12:50:09.350Z,27.80
2023-05-22T12:52:36.429Z,27.90
2023-05-22T12:55:03.464Z,28.10
2023-05-22T12:57:31.606Z,28.10
2023-05-22T12:59:58.329Z,28.40
2023-05-22T13:02:25.160Z,28.50
2023-05-22T13:04:51.967Z,28.30
2023-05-22T13:07:18.806Z,28.30
2023-05-22T13:09:45.533Z,28.10
2023-05-22T13:12:12.672Z,27.90
2023-05-22T13:14:40.535Z,27.90
2023-05-22T13:17:07.956Z,27.90
2023-05-22T13:19:35.029Z,28.00
2023-05-22T13:22:04.336Z,28.10
2023-05-22T13:24:31.091Z,28.20
2023-05-22T13:26:57.910Z,28.20
2023-05-22T13:29:24.612Z,28.50
2023-05-22T13:31:51.436Z,28.80
2023-05-22T13:34:18.388Z,28.90
2023-05-22T13:36:45.520Z,28.90
2023-05-22T13:39:12.391Z,29.10
2023-05-22T13:41:39.143Z,29.00
2023-05-22T13:44:06.458Z,28.80
2023-05-22T13:46:33.244Z,28.90
2023-05-22T13:49:00.521Z,28.90
2023-05-22T13:51:27.328Z,28.70
2023-05-22T13:53:54.211Z,28.70
2023-05-22T13:56:22.863Z,28.70
2023-05-22T13:58:49.989Z,28.90
2023-05-22T14:01:16.810Z,28.90
2023-05-22T14:03:44.627Z,28.90
2023-05-22T14:06:11.551Z,28.90
2023-05-22T14:08:38.508Z,28.90
2023-05-22T14:11:05.323Z,29.20
2023-05-22T14:13:32.398Z,29.80
2023-05-22T14:15:59.278Z,30.30
2023-05-22T14:18:26.309Z,30.70
2023-05-22T14:20:53.194Z,31.50
2023-05-22T14:23:19.934Z,32.50
2023-05-22T14:25:47.011Z,33.00
2023-05-22T14:28:14.121Z,33.30
2023-05-22T14:30:41.120Z,33.30
2023-05-22T14:33:08.211Z,34.00
2023-05-22T14:35:35.004Z,34.60
2023-05-22T14:38:01.894Z,35.10
2023-05-22T14:40:29.090Z,35.20
2023-05-22T14:42:59.111Z,35.40
2023-05-22T14:45:25.936Z,35.80
2023-05-22T14:47:55.384Z,36.10
2023-05-22T14:50:22.290Z,36.90
2023-05-22T14:52:49.851Z,37.60
2023-05-22T14:55:17.325Z,37.70
2023-05-22T14:57:44.189Z,37.70
2023-05-22T15:00:12.232Z,37.30
2023-05-22T15:02:40.239Z,36.90
2023-05-22T15:05:07.696Z,36.40
2023-05-22T15:10:05.956Z,34.80
2023-05-22T15:12:33.174Z,34.30
2023-05-22T15:14:59.975Z,34.20
2023-05-22T15:17:26.838Z,33.90
2023-05-22T15:19:53.604Z,33.50
2023-05-22T15:22:20.394Z,32.80
2023-05-22T15:24:48.270Z,31.60
2023-05-22T15:27:16.056Z,30.90
2023-05-22T15:29:43.164Z,30.30
2023-05-22T15:32:10.154Z,29.90
2023-05-22T15:34:37.029Z,29.90
2023-05-22T15:37:03.843Z,29.70
2023-05-22T15:39:31.216Z,29.60
2023-05-22T15:42:05.828Z,29.20
2023-05-22T15:44:33.047Z,28.90
2023-05-22T15:46:59.808Z,28.30
2023-05-22T15:49:28.609Z,27.80
2023-05-22T15:51:58.543Z,27.80
2023-05-22T15:54:25.343Z,28.00
2023-05-22T15:56:52.101Z,28.30
2023-05-22T15:59:19.171Z,28.50
2023-05-22T16:01:46.538Z,28.30
2023-05-22T16:04:13.303Z,28.20
2023-05-22T16:06:40.050Z,27.90
2023-05-22T16:09:07.010Z,27.50
2023-05-22T16:11:33.792Z,26.90
2023-05-22T16:14:01.048Z,26.60
2023-05-22T16:16:29.302Z,26.20
2023-05-22T16:18:56.274Z,25.90
2023-05-22T16:21:23.268Z,25.80
2023-05-22T16:23:50.005Z,25.70
2023-05-22T16:26:16.934Z,25.60
2023-05-22T16:28:43.826Z,25.80
2023-05-22T16:31:12.838Z,25.90
2023-05-22T16:33:39.702Z,25.80
2023-05-22T16:36:06.840Z,25.70
2023-05-22T16:38:33.616Z,25.60
2023-05-22T16:41:01.261Z,25.50
2023-05-22T16:43:27.981Z,25.20
2023-05-22T16:45:54.732Z,25.00
2023-05-22T16:48:21.560Z,25.00
2023-05-22T16:50:48.423Z,24.90
2023-05-22T16:53:18.384Z,24.80
2023-05-22T16:55:45.432Z,24.60
2023-05-22T16:58:13.438Z,24.30
2023-05-22T17:00:40.600Z,24.10
2023-05-22T17:03:09.443Z,24.00
2023-05-22T17:05:40.215Z,23.70
2023-05-22T17:08:07.252Z,23.60
2023-05-22T17:10:34.022Z,23.30
2023-05-22T17:13:00.763Z,23.30
2023-05-22T17:15:27.558Z,23.40
2023-05-22T17:17:54.872Z,23.40
2023-05-22T17:20:23.230Z,23.50
2023-05-22T17:22:50.212Z,23.50
2023-05-22T17:25:17.058Z,23.40
2023-05-22T17:27:44.478Z,23.40
2023-05-22T17:30:11.589Z,23.40
2023-05-22T17:32:38.552Z,23.40
2023-05-22T17:35:06.945Z,23.40
2023-05-22T17:37:33.986Z,23.20
2023-05-22T17:40:00.944Z,23.10
2023-05-22T17:42:27.789Z,23.10
2023-05-22T17:44:54.660Z,23.10
2023-05-22T17:47:21.511Z,23.10
2023-05-22T17:49:48.467Z,23.10
2023-05-22T17:52:15.368Z,23.20
2023-05-22T17:54:42.123Z,23.10
2023-05-22T17:57:09.386Z,23.20
2023-05-22T17:59:38.408Z,23.10
2023-05-22T18:02:07.637Z,23.20
2023-05-22T18:04:35.700Z,23.10
2023-05-22T18:07:02.497Z,23.10
2023-05-22T18:09:29.259Z,23.10
2023-05-22T18:11:56.056Z,23.00
2023-05-22T18:14:22.827Z,22.90
2023-05-22T18:16:49.926Z,22.70
2023-05-22T18:19:16.721Z,22.60
2023-05-22T18:21:43.901Z,22.50
2023-05-22T18:24:10.670Z,22.50
2023-05-22T18:26:37.487Z,22.40
2023-05-22T18:29:04.404Z,22.40
2023-05-22T18:31:31.248Z,22.30
2023-05-22T18:33:58.175Z,22.20
2023-05-22T18:36:25.036Z,22.20
2023-05-22T18:38:51.893Z,22.10
2023-05-22T18:41:18.696Z,22.10
2023-05-22T18:43:45.752Z,22.00
2023-05-22T18:46:12.590Z,22.00
2023-05-22T18:48:39.790Z,21.90
2023-05-22T18:51:06.526Z,21.80
2023-05-22T18:53:33.367Z,21.70
2023-05-22T18:56:00.342Z,21.60
2023-05-22T18:58:27.086Z,21.60
2023-05-22T19:00:55.686Z,21.60
2023-05-22T19:03:22.849Z,21.60
2023-05-22T19:05:49.653Z,21.50
2023-05-22T19:08:16.579Z,21.40
2023-05-22T19:10:44.732Z,21.30
2023-05-22T19:13:11.622Z,21.10
2023-05-22T19:15:38.375Z,21.10
2023-05-22T19:18:05.427Z,21.00
2023-05-22T19:20:32.353Z,20.90
2023-05-22T19:22:59.396Z,20.70
2023-05-22T19:25:26.347Z,20.60
2023-05-22T19:27:53.290Z,20.50
2023-05-22T19:30:21.870Z,20.50
2023-05-22T19:32:55.938Z,20.50
2023-05-22T19:35:22.877Z,20.50
2023-05-22T19:37:50.184Z,20.40
2023-05-22T19:40:17.225Z,20.40
2023-05-22T19:42:44.257Z,20.30
2023-05-22T19:45:11.245Z,20.20
2023-05-22T19:47:38.040Z,20.10
2023-05-22T19:50:05.378Z,20.10
2023-05-22T19:52:32.248Z,20.00
2023-05-22T19:54:58.996Z,20.00
2023-05-22T19:57:27.034Z,20.00
2023-05-22T19:59:54.371Z,19.90
2023-05-22T20:02:24.015Z,19.90
2023-05-22T20:04:51.870Z,19.80
2023-05-22T20:07:18.614Z,19.80
2023-05-22T20:09:45.342Z,19.70
2023-05-22T20:12:12.286Z,19.60
2023-05-22T20:14:39.096Z,19.50
2023-05-22T20:17:06.240Z,19.50
2023-05-22T20:19:34.380Z,19.40
2023-05-22T20:22:02.124Z,19.30
2023-05-22T20:24:29.614Z,19.30
2023-05-22T20:26:56.721Z,19.30
2023-05-22T20:29:23.633Z,19.20
2023-05-22T20:31:54.493Z,19.20
2023-05-22T20:34:22.109Z,19.20
2023-05-22T20:36:49.013Z,19.20
2023-05-22T20:39:16.277Z,19.00
2023-05-22T20:41:43.073Z,19.00
2023-05-22T20:44:10.674Z,19.00
2023-05-22T20:46:37.503Z,18.90
2023-05-22T20:49:05.149Z,18.90
2023-05-22T20:51:33.531Z,18.90
2023-05-22T20:54:00.361Z,18.80
2023-05-22T20:56:27.689Z,18.70
2023-05-22T20:58:55.004Z,18.70
2023-05-22T21:01:22.861Z,18.60
2023-05-22T21:03:51.753Z,18.50
2023-05-22T21:06:20.061Z,18.50
2023-05-22T21:08:47.149Z,18.50
2023-05-22T21:11:14.019Z,18.40
2023-05-22T21:13:40.840Z,18.40
2023-05-22T21:16:07.841Z,18.30
2023-05-22T21:18:35.152Z,18.30
2023-05-22T21:21:01.987Z,18.30
2023-05-22T21:23:28.859Z,18.20
2023-05-22T21:25:55.960Z,18.20
2023-05-22T21:28:22.935Z,18.10
2023-05-22T21:30:49.704Z,18.00
2023-05-22T21:33:16.701Z,18.00
2023-05-22T21:35:43.447Z,18.00
2023-05-22T21:38:10.196Z,18.00
2023-05-22T21:40:37.089Z,18.00
2023-05-22T21:43:03.840Z,17.90
2023-05-22T21:45:31.123Z,17.90
2023-05-22T21:47:57.992Z,17.90
2023-05-22T21:50:24.801Z,17.80
2023-05-22T21:52:53.965Z,17.80
2023-05-22T21:55:21.467Z,17.70
2023-05-22T21:57:48.315Z,17.70
2023-05-22T22:00:15.454Z,17.60
2023-05-22T22:02:42.332Z,17.60
2023-05-22T22:05:11.554Z,17.60
2023-05-22T22:07:38.557Z,17.60
2023-05-22T22:10:06.105Z,17.60
2023-05-22T22:12:32.896Z,17.60
2023-05-22T22:14:59.943Z,17.50
2023-05-22T22:17:26.855Z,17.50
2023-05-22T22:19:56.800Z,17.50
2023-05-22T22:22:24.511Z,17.50
2023-05-22T22:24:51.328Z,17.50
2023-05-22T22:27:19.649Z,17.50
2023-05-22T22:29:46.885Z,17.40
2023-05-22T22:32:13.771Z,17.40
2023-05-22T22:34:40.630Z,17.40
2023-05-22T22:37:07.523Z,17.40
2023-05-22T22:39:34.261Z,17.40
2023-05-22T22:42:04.283Z,17.30
2023-05-22T22:44:32.160Z,17.30
2023-05-22T22:46:59.188Z,17.30
2023-05-22T22:49:25.954Z,17.30
2023-05-22T22:51:53.500Z,17.30
2023-05-22T22:54:20.834Z,17.30
2023-05-22T22:56:49.653Z,17.30
2023-05-22T22:59:16.903Z,17.20
2023-05-22T23:01:43.803Z,17.20
2023-05-22T23:04:10.950Z,17.20
2023-05-22T23:06:38.090Z,17.20
2023-05-22T23:09:04.990Z,17.00
2023-05-22T23:11:37.290Z,17.00
2023-05-22T23:14:09.060Z,17.00
2023-05-22T23:16:37.129Z,16.90
2023-05-22T23:19:05.042Z,17.00
2023-05-22T23:21:32.887Z,16.90
2023-05-22T23:24:01.411Z,16.80
2023-05-22T23:26:28.671Z,16.70
2023-05-22T23:28:55.618Z,16.70
2023-05-22T23:31:30.542Z,16.70
2023-05-22T23:33:58.562Z,16.70
2023-05-22T23:36:25.887Z,16.70
2023-05-22T23:38:52.726Z,16.70
2023-05-22T23:41:19.663Z,16.70
2023-05-22T23:43:49.512Z,16.60
2023-05-22T23:46:21.408Z,16.70
2023-05-22T23:48:48.215Z,16.60
2023-05-22T23:51:14.991Z,16.60
2023-05-22T23:53:42.520Z,16.50
2023-05-22T23:56:10.399Z,16.50
2023-05-22T23:58:37.845Z,16.50
